Time;durP1;ratioP1;P1;durP2;ratioP2;P2;SDS_P1;SDS_P2;PMS_P1;PMS_P2;Temp;Humidity;BMP_temperature;BMP_pressure;BME280_temperature;BME280_humidity;BME280_pressure;Samples;Min_cycle;Max_cycle;Signal;HPM_P1;HPM_P2
2022/08/10 02:16:01;;;;;;;9.20;1.67;;;;;;;16.12;80.73;102724.38;10056481;29;20037;-74
2022/08/10 03:53:00;;;;;;;2.63;2.42;;;;;;;15.34;89.81;102687.47;9980513;29;20422;-74
2022/08/10 07:13:37;;;;;;;5.68;3.72;;;;;;;25.38;63.15;102681.66;9890158;30;20125;-75
2022/08/10 07:36:30;;;;;;;4.88;2.97;;;;;;;25.78;59.87;102674.16;10100275;29;20465;-74
2022/08/10 07:41:34;;;;;;;3.13;2.92;;;;;;;25.95;57.36;102677.75;10184584;28;20062;-74
2022/08/10 08:10:37;;;;;;;2.67;2.50;;;;;;;28.62;53.74;102690.66;10098661;29;20503;-75
2022/08/10 09:11:53;;;;;;;5.65;3.53;;;;;;;30.76;42.61;102657.63;9999261;29;20040;-74
2022/08/10 09:36:12;;;;;;;2.72;2.45;;;;;;;32.03;40.99;102632.25;10024241;29;20034;-75
2022/08/10 10:04:47;;;;;;;1.70;1.60;;;;;;;32.33;35.84;102586.94;10211470;29;19997;-75
2022/08/10 10:10:05;;;;;;;2.15;2.05;;;;;;;32.95;34.73;102588.72;10236882;28;20042;-75
2022/08/10 10:15:57;;;;;;;2.60;2.40;;;;;;;32.92;36.04;102584.53;10295089;28;20366;-75
2022/08/10 10:21:48;;;;;;;2.58;2.38;;;;;;;33.34;31.19;102574.19;10294159;28;20407;-75
2022/08/10 10:39:04;;;;;;;3.08;1.70;;;;;;;33.44;29.59;102559.97;10294839;28;20060;-75
2022/08/10 10:44:26;;;;;;;1.65;1.60;;;;;;;33.76;29.20;102561.81;10293728;28;20097;-75
2022/08/10 11:02:51;;;;;;;10.48;2.05;;;;;;;33.52;31.49;102547.19;10323930;28;20481;-74
2022/08/10 11:13:54;;;;;;;2.65;2.25;;;;;;;33.97;30.07;102536.88;10177957;29;20032;-75
2022/08/10 11:31:35;;;;;;;2.22;2.03;;;;;;;33.87;29.25;102531.50;10178185;29;20071;-75
2022/08/10 11:43:00;;;;;;;10.60;2.13;;;;;;;34.08;29.09;102515.00;10099789;29;20441;-75
2022/08/10 11:49:00;;;;;;;1.52;1.42;;;;;;;34.24;30.36;102507.03;10302181;28;20100;-75
2022/08/10 11:54:06;;;;;;;1.90;1.80;;;;;;;34.25;28.80;102503.06;10177050;29;20468;-75
2022/08/10 12:04:26;;;;;;;3.83;2.42;;;;;;;33.90;28.53;102505.56;10147583;29;20520;-75
2022/08/10 12:09:26;;;;;;;1.33;1.33;;;;;;;33.82;29.12;102500.69;10177020;29;20052;-75
2022/08/10 12:15:09;;;;;;;2.22;1.75;;;;;;;34.32;29.05;102486.53;10160930;29;20048;-75
2022/08/10 12:20:13;;;;;;;6.93;1.73;;;;;;;34.81;29.08;102481.84;10030409;29;20060;-75
2022/08/10 12:25:36;;;;;;;2.08;1.90;;;;;;;34.60;27.55;102486.41;10045142;29;20034;-75
2022/08/10 12:30:52;;;;;;;1.80;1.70;;;;;;;34.39;29.25;102489.72;10179158;28;20050;-75
2022/08/10 12:36:15;;;;;;;3.47;2.08;;;;;;;34.44;30.37;102478.34;10259700;28;20063;-75
2022/08/10 12:41:53;;;;;;;6.43;1.80;;;;;;;34.83;28.15;102473.09;10243826;29;20436;-75
2022/08/10 12:47:15;;;;;;;1.50;1.50;;;;;;;35.51;30.96;102467.97;10257158;29;20037;-75
2022/08/10 13:16:56;;;;;;;3.60;1.75;;;;;;;35.15;30.65;102433.31;9944416;29;20039;-75
2022/08/10 13:27:39;;;;;;;3.80;2.63;;;;;;;35.31;30.54;102419.56;10250416;28;19997;-75
2022/08/10 13:32:46;;;;;;;2.42;2.33;;;;;;;34.88;30.38;102411.03;10295070;28;20382;-76
2022/08/10 13:37:47;;;;;;;1.55;1.40;;;;;;;34.46;30.58;102400.09;10279709;28;20442;-75
2022/08/10 13:42:48;;;;;;;2.05;1.95;;;;;;;34.26;30.70;102397.84;10295070;28;20034;-75
2022/08/10 13:48:42;;;;;;;1.58;1.48;;;;;;;33.80;30.98;102405.47;10295064;28;20450;-76
2022/08/10 14:01:13;;;;;;;1.45;1.42;;;;;;;33.80;31.22;102399.03;10207124;28;20431;-75
2022/08/10 14:31:24;;;;;;;2.67;2.47;;;;;;;34.07;32.25;102361.53;9979699;29;20034;-75
2022/08/10 14:54:39;;;;;;;2.38;1.77;;;;;;;32.79;32.57;102344.91;10197962;29;20035;-75
2022/08/10 14:59:44;;;;;;;3.58;2.33;;;;;;;32.97;32.89;102342.31;10217228;29;20078;-75
2022/08/10 15:04:50;;;;;;;4.65;1.63;;;;;;;32.52;33.12;102328.94;10233750;29;20047;-75
2022/08/10 15:09:51;;;;;;;1.95;1.73;;;;;;;32.44;32.10;102326.84;10268399;28;20039;-75
2022/08/10 15:14:54;;;;;;;3.60;1.80;;;;;;;32.07;33.02;102333.44;10316404;28;20033;-75
2022/08/10 15:19:57;;;;;;;2.30;2.10;;;;;;;31.82;33.20;102321.53;10300973;28;20027;-75
2022/08/10 15:25:05;;;;;;;2.05;1.95;;;;;;;31.58;33.11;102318.88;10284079;28;20026;-75
2022/08/10 15:30:12;;;;;;;1.88;1.77;;;;;;;31.22;34.04;102325.03;10335529;28;20355;-75
2022/08/10 15:40:36;;;;;;;2.50;2.30;;;;;;;31.25;34.05;102324.41;10318993;28;20054;-75
2022/08/10 15:45:36;;;;;;;1.63;1.52;;;;;;;31.09;33.88;102319.38;10301092;28;20037;-75
2022/08/10 15:50:38;;;;;;;4.40;2.10;;;;;;;31.10;34.40;102321.00;10321939;28;20030;-74
2022/08/10 15:55:50;;;;;;;1.42;1.35;;;;;;;30.88;34.57;102318.81;10291286;28;20472;-75
2022/08/10 16:00:58;;;;;;;2.97;1.95;;;;;;;30.69;35.18;102311.19;10342132;28;20209;-75
2022/08/10 16:05:59;;;;;;;3.63;2.30;;;;;;;30.31;34.75;102307.47;10324421;28;20030;-75
2022/08/10 16:11:04;;;;;;;1.63;1.52;;;;;;;29.98;35.47;102312.00;10323771;28;20057;-75
2022/08/10 16:16:06;;;;;;;1.75;1.50;;;;;;;29.36;36.07;102311.72;10324139;28;20027;-75
2022/08/10 16:21:14;;;;;;;1.55;1.45;;;;;;;28.94;36.69;102302.75;10308274;28;20401;-75
2022/08/10 16:26:16;;;;;;;4.82;1.90;;;;;;;28.67;37.04;102297.56;10341237;28;20034;-75
2022/08/10 16:31:24;;;;;;;5.07;1.77;;;;;;;28.50;37.10;102284.00;10325214;28;20054;-75
2022/08/10 16:36:40;;;;;;;3.50;1.65;;;;;;;28.35;37.53;102295.19;10308406;28;20022;-75
2022/08/10 16:41:44;;;;;;;4.65;1.92;;;;;;;28.17;37.88;102293.00;10308356;28;20501;-75
2022/08/10 16:46:45;;;;;;;1.60;1.50;;;;;;;28.06;37.99;102292.19;10323086;28;20450;-75
2022/08/10 16:51:47;;;;;;;2.58;2.03;;;;;;;27.89;37.79;102286.94;10307682;28;20027;-76
2022/08/10 16:56:47;;;;;;;2.60;1.25;;;;;;;27.84;38.02;102294.47;10323704;28;20477;-75
2022/08/10 17:01:47;;;;;;;1.90;1.80;;;;;;;27.74;37.96;102290.56;10321157;28;20058;-74
2022/08/10 17:06:58;;;;;;;2.25;1.85;;;;;;;27.61;38.87;102290.28;10323117;28;20121;-74
2022/08/10 17:12:09;;;;;;;2.17;1.98;;;;;;;27.55;38.79;102284.72;10338423;28;20038;-74
2022/08/10 17:17:26;;;;;;;2.38;2.17;;;;;;;27.43;39.19;102286.09;10307938;28;20117;-76
2022/08/10 17:22:34;;;;;;;2.13;1.98;;;;;;;27.43;38.85;102280.53;10304495;28;20121;-75
2022/08/10 17:27:36;;;;;;;1.90;1.80;;;;;;;27.30;39.21;102277.19;10304233;28;20385;-74
2022/08/10 17:32:59;;;;;;;2.20;2.00;;;;;;;27.22;39.29;102279.69;10305301;28;20374;-75
2022/08/10 17:38:01;;;;;;;2.00;1.90;;;;;;;27.15;39.37;102273.56;10319030;28;20409;-74
2022/08/10 17:43:02;;;;;;;2.35;1.38;;;;;;;26.99;39.57;102267.94;10287548;28;20458;-75
2022/08/10 17:48:08;;;;;;;3.85;2.50;;;;;;;26.88;39.50;102271.81;10335819;28;20034;-75
2022/08/10 17:53:17;;;;;;;2.83;2.08;;;;;;;26.73;40.84;102263.44;10319697;28;20026;-74
2022/08/10 17:58:19;;;;;;;2.05;1.95;;;;;;;26.64;40.13;102269.53;10303695;28;20045;-75
2022/08/10 18:03:37;;;;;;;2.50;1.70;;;;;;;26.52;40.99;102268.94;10287419;28;20050;-75
2022/08/10 18:08:54;;;;;;;2.85;1.92;;;;;;;26.42;40.66;102260.53;10302675;28;20030;-74
2022/08/10 18:14:00;;;;;;;2.95;1.75;;;;;;;26.28;41.14;102260.19;10304796;28;20042;-74
2022/08/10 18:19:10;;;;;;;1.98;1.88;;;;;;;26.08;42.01;102254.53;10317530;28;20046;-74
2022/08/10 18:24:15;;;;;;;4.25;1.55;;;;;;;25.94;42.48;102254.16;10335169;28;20038;-74
2022/08/10 18:29:20;;;;;;;1.73;1.63;;;;;;;25.78;42.85;102266.22;10317233;28;20038;-74
2022/08/10 18:34:25;;;;;;;2.83;1.50;;;;;;;25.66;42.54;102256.19;10335676;28;20025;-74
2022/08/10 18:39:31;;;;;;;3.47;2.35;;;;;;;25.51;43.48;102267.16;10301566;28;20041;-76
2022/08/10 18:44:39;;;;;;;2.72;1.77;;;;;;;25.38;43.62;102267.59;10317379;28;20030;-78
2022/08/10 18:49:49;;;;;;;8.65;2.10;;;;;;;25.17;44.38;102269.34;10334251;28;20034;-76
2022/08/10 18:54:50;;;;;;;1.35;1.33;;;;;;;24.98;46.57;102271.59;10334665;28;20030;-76
2022/08/10 19:00:02;;;;;;;1.98;1.88;;;;;;;24.86;45.97;102271.78;10301465;28;20561;-76
2022/08/10 19:05:23;;;;;;;2.15;1.23;;;;;;;24.69;45.57;102273.78;10318630;28;20035;-78
2022/08/10 19:10:35;;;;;;;1.90;1.83;;;;;;;24.49;45.77;102280.75;10334973;28;20026;-78
2022/08/10 19:16:02;;;;;;;1.95;1.85;;;;;;;24.31;46.64;102273.59;10317365;28;20100;-76
2022/08/10 19:21:20;;;;;;;3.90;1.85;;;;;;;24.17;46.33;102274.19;10319745;28;20478;-78
2022/08/10 19:26:42;;;;;;;2.08;1.98;;;;;;;23.96;48.19;102273.88;10306456;28;20474;-77
2022/08/10 19:31:57;;;;;;;13.02;2.58;;;;;;;23.85;47.85;102281.22;10309436;28;20026;-78
2022/08/10 19:37:17;;;;;;;2.35;1.40;;;;;;;23.71;48.08;102287.31;10310238;28;20034;-75
2022/08/10 19:42:30;;;;;;;2.22;2.03;;;;;;;23.58;48.56;102289.34;10324581;28;20112;-77
2022/08/10 19:47:54;;;;;;;2.05;1.92;;;;;;;23.48;48.67;102291.91;10292518;28;20034;-78
2022/08/10 19:53:21;;;;;;;4.60;3.05;;;;;;;23.37;49.45;102292.84;10308137;28;20034;-75
2022/08/10 19:58:52;;;;;;;2.80;1.83;;;;;;;23.28;50.21;102303.44;10339791;28;20486;-74
2022/08/10 20:04:01;;;;;;;3.92;2.17;;;;;;;23.19;52.22;102296.66;10323176;28;20051;-74
2022/08/10 20:09:18;;;;;;;18.98;3.20;;;;;;;23.12;52.09;102305.09;10324473;28;20038;-74
2022/08/10 20:14:26;;;;;;;2.50;2.05;;;;;;;22.94;51.21;102300.63;10340312;28;20463;-74
2022/08/10 20:19:48;;;;;;;5.18;2.30;;;;;;;22.80;51.15;102304.72;10306077;28;20470;-74
2022/08/10 20:24:53;;;;;;;2.40;2.00;;;;;;;22.71;53.97;102306.19;10338834;28;20485;-74
2022/08/10 20:30:07;;;;;;;4.25;2.65;;;;;;;22.65;53.21;102298.88;10338758;28;20447;-74
2022/08/10 20:35:27;;;;;;;2.42;2.30;;;;;;;22.51;52.84;102301.91;10304454;28;20030;-74
2022/08/10 20:40:33;;;;;;;4.43;2.55;;;;;;;22.43;56.23;102293.16;10322175;28;20385;-74
2022/08/10 20:46:15;;;;;;;2.70;1.90;;;;;;;22.36;55.07;102297.97;10338145;28;20030;-74
2022/08/10 20:51:21;;;;;;;5.25;2.85;;;;;;;22.22;55.48;102294.66;10298544;28;20034;-74
2022/08/10 20:56:24;;;;;;;4.72;2.28;;;;;;;22.11;58.64;102296.28;10306461;28;20030;-75
2022/08/10 21:01:46;;;;;;;3.00;2.75;;;;;;;22.00;57.85;102300.75;10339538;28;20057;-75
2022/08/10 21:06:59;;;;;;;4.53;2.63;;;;;;;21.86;62.70;102295.69;10337981;28;20076;-75
2022/08/10 21:12:40;;;;;;;3.60;3.22;;;;;;;21.78;63.16;102300.50;10304556;28;20080;-74
2022/08/10 21:17:58;;;;;;;13.80;3.65;;;;;;;21.66;62.34;102293.28;10336819;28;20065;-74
2022/08/10 21:23:04;;;;;;;4.07;3.22;;;;;;;21.57;68.08;102295.56;10321023;28;20520;-73
